createdAt,value
2023-03-15T00:02:04.882Z,7.11
2023-03-15T00:04:32.768Z,7.14
2023-03-15T00:07:00.999Z,7.12
2023-03-15T00:09:28.442Z,7.16
2023-03-15T00:11:55.965Z,7.11
2023-03-15T00:14:23.511Z,7.12
2023-03-15T00:16:51.226Z,7.07
2023-03-15T00:19:18.667Z,7.01
2023-03-15T00:21:46.153Z,6.93
2023-03-15T00:24:13.407Z,6.92
2023-03-15T00:26:40.783Z,6.90
2023-03-15T00:29:09.480Z,6.93
2023-03-15T00:31:37.227Z,7.03
2023-03-15T00:34:04.668Z,6.94
2023-03-15T00:36:32.286Z,6.86
2023-03-15T00:38:59.657Z,6.90
2023-03-15T00:41:27.389Z,6.84
2023-03-15T00:43:54.934Z,6.73
2023-03-15T00:46:22.530Z,6.67
2023-03-15T00:48:51.369Z,6.66
2023-03-15T00:51:22.051Z,6.61
2023-03-15T00:53:51.661Z,6.62
2023-03-15T00:56:24.711Z,6.65
2023-03-15T00:58:53.179Z,6.75
2023-03-15T01:01:24.620Z,6.73
2023-03-15T01:03:53.132Z,6.68
2023-03-15T01:06:25.560Z,6.64
2023-03-15T01:08:55.931Z,6.67
2023-03-15T01:11:25.894Z,6.78
2023-03-15T01:13:55.821Z,6.73
2023-03-15T01:16:23.955Z,6.68
2023-03-15T01:18:51.994Z,6.64
2023-03-15T01:21:21.629Z,6.70
2023-03-15T01:23:49.323Z,6.65
2023-03-15T01:26:18.129Z,6.75
2023-03-15T01:28:45.899Z,6.76
2023-03-15T01:31:26.215Z,6.74
2023-03-15T01:33:54.428Z,6.72
2023-03-15T01:36:22.240Z,6.68
2023-03-15T01:38:50.236Z,6.69
2023-03-15T01:41:21.223Z,6.75
2023-03-15T01:43:48.970Z,6.78
2023-03-15T01:46:23.818Z,6.78
2023-03-15T01:48:59.020Z,6.81
2023-03-15T01:51:54.556Z,6.89
2023-03-15T01:54:40.507Z,6.95
2023-03-15T01:57:13.486Z,7.03
2023-03-15T01:59:48.376Z,7.10
2023-03-15T02:02:16.098Z,7.03
2023-03-15T02:04:49.664Z,6.91
2023-03-15T02:07:22.766Z,6.88
2023-03-15T02:10:05.704Z,6.80
2023-03-15T02:12:41.032Z,6.77
2023-03-15T02:15:09.746Z,6.78
2023-03-15T02:17:41.109Z,6.74
2023-03-15T02:20:39.297Z,6.74
2023-03-15T02:23:11.674Z,6.77
2023-03-15T02:25:52.111Z,6.66
2023-03-15T02:28:20.618Z,6.61
2023-03-15T02:30:48.846Z,6.60
2023-03-15T02:33:21.563Z,6.60
2023-03-15T02:35:49.205Z,6.62
2023-03-15T02:38:17.919Z,6.67
2023-03-15T02:40:46.541Z,6.63
2023-03-15T02:43:24.292Z,6.67
2023-03-15T02:45:54.452Z,6.67
2023-03-15T02:48:22.116Z,6.70
2023-03-15T02:50:49.754Z,6.73
2023-03-15T02:53:17.370Z,6.67
2023-03-15T02:55:44.830Z,6.66
2023-03-15T02:58:12.410Z,6.62
2023-03-15T03:00:40.445Z,6.62
2023-03-15T03:03:09.024Z,6.59
2023-03-15T03:05:36.646Z,6.60
2023-03-15T03:08:04.031Z,6.61
2023-03-15T03:10:31.788Z,6.57
2023-03-15T03:13:02.036Z,6.57
2023-03-15T03:15:35.993Z,6.52
2023-03-15T03:18:04.008Z,6.50
2023-03-15T03:20:31.531Z,6.46
2023-03-15T03:22:59.074Z,6.44
2023-03-15T03:25:27.350Z,6.39
2023-03-15T03:27:57.321Z,6.40
2023-03-15T03:30:27.216Z,6.40
2023-03-15T03:32:54.700Z,6.39
2023-03-15T03:35:22.320Z,6.40
2023-03-15T03:37:50.123Z,6.38
2023-03-15T03:40:22.250Z,6.36
2023-03-15T03:42:49.824Z,6.27
2023-03-15T03:45:19.759Z,6.23
2023-03-15T03:47:51.868Z,6.17
2023-03-15T03:50:19.539Z,6.10
2023-03-15T03:52:47.181Z,6.08
2023-03-15T03:55:25.555Z,6.07
2023-03-15T03:57:54.441Z,6.05
2023-03-15T04:00:36.377Z,6.02
2023-03-15T04:03:04.978Z,6.02
2023-03-15T04:05:34.903Z,5.98
2023-03-15T04:08:02.612Z,5.95
2023-03-15T04:10:35.216Z,6.01
2023-03-15T04:13:03.439Z,6.06
2023-03-15T04:15:31.520Z,6.08
2023-03-15T04:17:59.420Z,6.08
2023-03-15T04:20:39.063Z,6.12
2023-03-15T04:23:07.451Z,6.17
2023-03-15T04:25:58.060Z,6.20
2023-03-15T04:28:44.248Z,6.14
2023-03-15T04:31:37.801Z,6.16
2023-03-15T04:34:20.408Z,6.05
2023-03-15T04:37:13.909Z,5.98
2023-03-15T04:40:00.128Z,6.01
2023-03-15T04:42:42.118Z,5.92
2023-03-15T04:45:28.933Z,5.91
2023-03-15T04:48:01.583Z,5.81
2023-03-15T04:50:58.392Z,5.74
2023-03-15T04:53:46.284Z,5.72
2023-03-15T04:56:37.543Z,5.66
2023-03-15T04:59:23.608Z,5.62
2023-03-15T05:01:57.294Z,5.65
2023-03-15T05:04:50.954Z,5.67
2023-03-15T05:07:26.031Z,5.69
2023-03-15T05:10:17.138Z,5.71
2023-03-15T05:12:53.879Z,5.66
2023-03-15T05:15:35.039Z,5.54
2023-03-15T05:18:22.069Z,5.43
2023-03-15T05:21:08.261Z,5.43
2023-03-15T05:23:54.847Z,5.42
2023-03-15T05:26:28.284Z,5.48
2023-03-15T05:29:16.879Z,5.56
2023-03-15T05:31:58.959Z,5.57
2023-03-15T05:34:42.964Z,5.67
2023-03-15T05:37:27.995Z,5.64
2023-03-15T05:39:55.628Z,5.57
2023-03-15T05:42:41.739Z,5.59
2023-03-15T05:45:31.188Z,5.52
2023-03-15T05:48:17.293Z,5.49
2023-03-15T05:51:17.435Z,5.43
2023-03-15T05:54:07.772Z,5.39
2023-03-15T05:57:00.057Z,5.40
2023-03-15T05:59:43.870Z,5.33
2023-03-15T06:02:45.350Z,5.26
2023-03-15T06:05:38.740Z,5.13
2023-03-15T06:08:10.952Z,5.11
2023-03-15T06:10:42.435Z,5.10
2023-03-15T06:13:11.986Z,5.15
2023-03-15T06:15:40.486Z,5.28
2023-03-15T06:18:10.072Z,5.49
2023-03-15T06:20:38.083Z,5.46
2023-03-15T06:23:11.199Z,5.53
2023-03-15T06:25:46.938Z,5.63
2023-03-15T06:28:15.000Z,5.70
2023-03-15T06:30:49.091Z,5.73
2023-03-15T06:33:16.872Z,5.80
2023-03-15T06:35:46.852Z,5.89
2023-03-15T06:38:15.343Z,6.24
2023-03-15T06:40:43.896Z,6.68
2023-03-15T06:43:18.254Z,6.94
2023-03-15T06:45:46.824Z,7.18
2023-03-15T06:48:14.944Z,7.44
2023-03-15T06:50:47.393Z,7.67
2023-03-15T06:53:16.402Z,7.90
2023-03-15T06:55:45.393Z,8.14
2023-03-15T06:58:13.984Z,8.69
2023-03-15T07:00:42.485Z,9.34
2023-03-15T07:03:10.674Z,9.76
2023-03-15T07:05:38.118Z,9.87
2023-03-15T07:08:05.791Z,10.02
2023-03-15T07:10:34.036Z,10.33
2023-03-15T07:13:01.820Z,10.79
2023-03-15T07:15:29.259Z,11.04
2023-03-15T07:17:57.078Z,11.32
2023-03-15T07:20:27.108Z,11.82
2023-03-15T07:22:54.676Z,12.40
2023-03-15T07:25:24.167Z,12.82
2023-03-15T07:27:53.019Z,13.25
2023-03-15T07:30:21.341Z,13.62
2023-03-15T07:32:49.057Z,13.89
2023-03-15T07:35:18.238Z,14.02
2023-03-15T07:37:46.375Z,13.94
2023-03-15T07:40:14.078Z,13.73
2023-03-15T07:42:42.166Z,13.47
2023-03-15T07:45:10.411Z,13.36
2023-03-15T07:47:38.130Z,13.48
2023-03-15T07:50:06.776Z,13.81
2023-03-15T07:52:34.354Z,14.15
2023-03-15T07:55:01.796Z,14.19
2023-03-15T07:57:29.281Z,14.10
2023-03-15T07:59:56.814Z,13.82
2023-03-15T08:02:24.320Z,14.04
2023-03-15T08:04:51.795Z,14.73
2023-03-15T08:07:19.408Z,15.32
2023-03-15T08:09:46.885Z,15.74
2023-03-15T08:12:14.614Z,16.04
2023-03-15T08:14:42.074Z,16.22
2023-03-15T08:17:13.188Z,16.29
2023-03-15T08:19:40.737Z,15.71
2023-03-15T08:22:08.323Z,15.52
2023-03-15T08:24:36.079Z,15.79
2023-03-15T08:27:05.114Z,16.21
2023-03-15T08:29:32.588Z,16.52
2023-03-15T08:32:00.217Z,16.82
2023-03-15T08:34:27.656Z,17.07
2023-03-15T08:36:55.223Z,17.56
2023-03-15T08:39:24.154Z,17.76
2023-03-15T08:41:51.733Z,17.80
2023-03-15T08:44:19.370Z,17.64
2023-03-15T08:46:46.965Z,17.20
2023-03-15T08:49:14.575Z,16.51
2023-03-15T08:51:42.008Z,16.54
2023-03-15T08:54:09.782Z,16.80
2023-03-15T08:56:37.234Z,17.19
2023-03-15T08:59:05.293Z,17.45
2023-03-15T09:01:32.826Z,17.82
2023-03-15T09:04:01.303Z,18.20
2023-03-15T09:06:29.042Z,18.63
2023-03-15T09:08:56.680Z,18.98
2023-03-15T09:11:24.156Z,18.97
2023-03-15T09:13:51.787Z,19.17
2023-03-15T09:16:19.314Z,19.41
2023-03-15T09:18:46.811Z,19.57
2023-03-15T09:21:14.230Z,19.79
2023-03-15T09:23:41.917Z,19.94
2023-03-15T09:26:09.441Z,20.10
2023-03-15T09:28:36.965Z,20.22
2023-03-15T09:31:06.562Z,20.08
2023-03-15T09:33:34.189Z,20.14
2023-03-15T09:36:01.611Z,20.13
2023-03-15T09:38:29.301Z,20.14
2023-03-15T09:40:58.737Z,20.14
2023-03-15T09:43:47.441Z,20.27
2023-03-15T09:46:27.930Z,20.30
2023-03-15T09:49:05.849Z,20.14
2023-03-15T09:51:52.242Z,19.74
2023-03-15T09:54:50.376Z,19.11
2023-03-15T09:57:24.111Z,18.85
2023-03-15T09:59:54.532Z,18.89
2023-03-15T10:02:30.257Z,18.77
2023-03-15T10:05:11.187Z,18.29
2023-03-15T10:07:38.725Z,17.87
2023-03-15T10:10:18.213Z,17.32
2023-03-15T10:13:16.718Z,16.83
2023-03-15T10:15:44.341Z,16.72
2023-03-15T10:18:14.615Z,16.28
2023-03-15T10:20:49.678Z,15.95
2023-03-15T10:23:23.657Z,15.72
2023-03-15T10:25:52.192Z,15.55
2023-03-15T10:28:33.857Z,15.57
2023-03-15T10:31:22.353Z,15.39
2023-03-15T10:33:57.483Z,15.40
2023-03-15T10:36:26.313Z,15.59
2023-03-15T10:38:53.807Z,15.68
2023-03-15T10:41:41.265Z,15.79
2023-03-15T10:44:24.711Z,15.83
2023-03-15T10:47:24.502Z,15.90
2023-03-15T10:49:59.605Z,16.11
2023-03-15T10:52:39.319Z,16.24
2023-03-15T10:55:21.849Z,16.31
2023-03-15T10:57:56.592Z,16.41
2023-03-15T11:00:29.943Z,16.81
2023-03-15T11:03:18.085Z,17.25
2023-03-15T11:05:51.482Z,17.39
2023-03-15T11:08:25.223Z,17.35
2023-03-15T11:10:59.048Z,17.40
2023-03-15T11:13:31.100Z,17.29
2023-03-15T11:16:04.683Z,17.08
2023-03-15T11:18:47.135Z,17.36
2023-03-15T11:21:16.265Z,17.48
2023-03-15T11:23:48.078Z,17.75
2023-03-15T11:26:33.003Z,17.80
2023-03-15T11:29:21.310Z,17.89
2023-03-15T11:31:51.300Z,17.77
2023-03-15T11:34:36.566Z,17.55
2023-03-15T11:37:14.413Z,17.31
2023-03-15T11:40:15.536Z,16.97
2023-03-15T11:43:29.318Z,16.88
2023-03-15T11:46:14.976Z,16.59
2023-03-15T11:49:15.270Z,16.56
2023-03-15T11:51:43.130Z,16.72
2023-03-15T11:54:15.577Z,16.67
2023-03-15T11:57:27.461Z,16.65
2023-03-15T11:59:56.605Z,16.76
2023-03-15T12:02:26.816Z,16.80
2023-03-15T12:04:55.797Z,16.93
2023-03-15T12:07:31.335Z,17.07
2023-03-15T12:10:04.763Z,16.94
2023-03-15T12:12:32.349Z,16.67
2023-03-15T12:15:06.280Z,16.53
2023-03-15T12:17:55.632Z,16.27
2023-03-15T12:20:38.812Z,16.24
2023-03-15T12:23:17.905Z,16.27
2023-03-15T12:26:03.438Z,16.15
2023-03-15T12:28:41.472Z,16.09
2023-03-15T12:31:15.831Z,16.08
2023-03-15T12:33:57.789Z,15.97
2023-03-15T12:36:41.380Z,15.88
2023-03-15T12:39:17.534Z,15.87
2023-03-15T12:41:51.455Z,16.00
2023-03-15T12:44:33.936Z,16.03
2023-03-15T12:47:03.799Z,15.99
2023-03-15T12:49:41.320Z,16.15
2023-03-15T12:52:11.675Z,16.17
2023-03-15T12:54:57.509Z,16.13
2023-03-15T12:57:30.196Z,16.12
2023-03-15T13:00:11.995Z,15.96
2023-03-15T13:02:50.280Z,15.95
2023-03-15T13:05:26.107Z,16.05
2023-03-15T13:07:56.603Z,16.00
2023-03-15T13:11:02.857Z,16.17
2023-03-15T13:13:52.151Z,16.17
2023-03-15T13:16:44.629Z,16.19
2023-03-15T13:19:12.167Z,16.10
2023-03-15T13:22:01.974Z,16.03
2023-03-15T13:24:52.873Z,15.99
2023-03-15T13:27:53.698Z,15.83
2023-03-15T13:30:55.507Z,15.81
2023-03-15T13:33:27.125Z,15.66
2023-03-15T13:36:10.966Z,15.55
2023-03-15T13:38:44.379Z,15.59
2023-03-15T13:41:20.908Z,15.61
2023-03-15T13:43:51.406Z,15.53
2023-03-15T13:46:24.592Z,15.26
2023-03-15T13:48:54.423Z,15.26
2023-03-15T13:51:26.364Z,15.20
2023-03-15T13:54:25.121Z,15.25
2023-03-15T13:57:01.482Z,15.33
2023-03-15T13:59:55.154Z,15.05
2023-03-15T14:02:52.420Z,15.15
2023-03-15T14:05:29.621Z,15.09
2023-03-15T14:07:57.167Z,15.04
2023-03-15T14:10:33.884Z,15.10
2023-03-15T14:13:46.272Z,15.09
2023-03-15T14:16:31.534Z,15.04
2023-03-15T14:19:18.317Z,14.81
2023-03-15T14:21:57.246Z,14.82
2023-03-15T14:24:37.887Z,14.81
2023-03-15T14:27:08.881Z,14.81
2023-03-15T14:29:39.107Z,14.78
2023-03-15T14:32:09.507Z,14.59
2023-03-15T14:34:45.465Z,14.66
2023-03-15T14:37:41.077Z,14.66
2023-03-15T14:40:29.789Z,14.63
2023-03-15T14:42:57.255Z,14.53
2023-03-15T14:45:24.806Z,14.58
2023-03-15T14:47:57.643Z,14.30
2023-03-15T14:50:34.634Z,14.16
2023-03-15T14:53:02.665Z,14.17
2023-03-15T14:55:35.189Z,14.21
2023-03-15T14:58:14.609Z,14.27
2023-03-15T15:00:44.650Z,14.34
2023-03-15T15:03:22.449Z,14.30
2023-03-15T15:05:50.086Z,14.32
2023-03-15T15:08:22.441Z,14.30
2023-03-15T15:10:52.313Z,14.35
2023-03-15T15:13:22.859Z,14.43
2023-03-15T15:15:56.102Z,14.39
2023-03-15T15:18:26.506Z,14.57
2023-03-15T15:20:56.586Z,14.56
2023-03-15T15:23:28.245Z,14.61
2023-03-15T15:26:04.714Z,14.57
2023-03-15T15:28:36.954Z,14.54
2023-03-15T15:31:07.003Z,14.54
2023-03-15T15:33:34.808Z,14.57
2023-03-15T15:36:02.940Z,14.62
2023-03-15T15:38:38.386Z,14.79
2023-03-15T15:41:13.395Z,14.81
2023-03-15T15:43:42.028Z,14.70
2023-03-15T15:46:11.616Z,14.72
2023-03-15T15:48:40.568Z,14.68
2023-03-15T15:51:19.841Z,14.54
2023-03-15T15:53:47.692Z,14.62
2023-03-15T15:56:15.925Z,14.59
2023-03-15T15:58:44.751Z,14.63
2023-03-15T16:01:14.411Z,14.66
2023-03-15T16:03:42.602Z,14.51
2023-03-15T16:06:21.230Z,14.43
2023-03-15T16:08:51.224Z,14.47
2023-03-15T16:11:19.480Z,14.38
2023-03-15T16:13:49.675Z,14.35
2023-03-15T16:16:18.014Z,14.30
2023-03-15T16:18:45.820Z,14.12
2023-03-15T16:21:33.708Z,13.92
2023-03-15T16:24:24.896Z,13.97
2023-03-15T16:26:59.870Z,13.96
2023-03-15T16:29:35.445Z,13.82
2023-03-15T16:32:15.966Z,13.72
2023-03-15T16:34:48.436Z,13.66
2023-03-15T16:37:25.936Z,13.50
2023-03-15T16:39:57.431Z,13.53
2023-03-15T16:42:25.846Z,13.35
2023-03-15T16:44:53.776Z,13.34
2023-03-15T16:47:21.438Z,13.20
2023-03-15T16:49:48.831Z,13.17
2023-03-15T16:52:17.367Z,13.19
2023-03-15T16:54:47.553Z,13.24
2023-03-15T16:57:22.693Z,13.28
2023-03-15T16:59:50.904Z,13.27
2023-03-15T17:02:27.734Z,13.19
2023-03-15T17:04:55.417Z,13.13
2023-03-15T17:07:31.415Z,12.92
2023-03-15T17:10:06.538Z,12.89
2023-03-15T17:12:35.787Z,12.87
2023-03-15T17:15:03.567Z,12.93
2023-03-15T17:17:36.308Z,12.74
2023-03-15T17:20:22.015Z,12.67
2023-03-15T17:22:51.361Z,12.66
2023-03-15T17:25:20.239Z,12.61
2023-03-15T17:27:49.271Z,12.69
2023-03-15T17:30:19.335Z,12.66
2023-03-15T17:32:47.280Z,12.66
2023-03-15T17:35:16.403Z,12.66
2023-03-15T17:37:47.915Z,12.71
2023-03-15T17:40:30.717Z,12.64
2023-03-15T17:43:00.986Z,12.54
2023-03-15T17:45:35.757Z,12.52
2023-03-15T17:48:04.436Z,12.56
2023-03-15T17:50:33.580Z,12.51
2023-03-15T17:53:15.888Z,12.61
2023-03-15T17:55:44.070Z,12.43
2023-03-15T17:58:22.890Z,12.45
2023-03-15T18:00:53.669Z,12.34
2023-03-15T18:03:23.268Z,12.22
2023-03-15T18:05:51.054Z,12.23
2023-03-15T18:08:21.503Z,12.20
2023-03-15T18:10:51.605Z,12.15
2023-03-15T18:13:23.370Z,12.29
2023-03-15T18:15:51.559Z,12.22
2023-03-15T18:18:19.863Z,12.22
2023-03-15T18:20:49.551Z,12.17
2023-03-15T18:23:18.501Z,12.12
2023-03-15T18:25:46.375Z,12.21
2023-03-15T18:28:14.167Z,12.31
2023-03-15T18:30:41.744Z,12.27
2023-03-15T18:33:11.065Z,12.27
2023-03-15T18:35:38.693Z,12.20
2023-03-15T18:38:06.210Z,12.22
2023-03-15T18:40:35.434Z,12.26
2023-03-15T18:43:05.350Z,12.15
2023-03-15T18:45:35.671Z,12.06
2023-03-15T18:48:04.519Z,12.10
2023-03-15T18:50:33.742Z,12.13
2023-03-15T18:53:03.537Z,12.17
2023-03-15T18:55:32.173Z,12.24
2023-03-15T18:57:59.610Z,12.17
2023-03-15T19:00:32.726Z,12.19
2023-03-15T19:03:01.363Z,12.15
2023-03-15T19:05:31.953Z,12.00
2023-03-15T19:07:59.475Z,12.10
2023-03-15T19:10:27.548Z,12.08
2023-03-15T19:12:55.180Z,12.04
2023-03-15T19:15:23.894Z,11.98
2023-03-15T19:17:54.626Z,11.98
2023-03-15T19:20:23.363Z,12.04
2023-03-15T19:22:52.381Z,11.94
2023-03-15T19:25:20.995Z,11.94
2023-03-15T19:27:48.765Z,11.96
2023-03-15T19:30:20.981Z,11.83
2023-03-15T19:32:50.947Z,11.80
2023-03-15T19:35:20.182Z,11.71
2023-03-15T19:37:48.883Z,11.87
2023-03-15T19:40:18.497Z,11.91
2023-03-15T19:42:47.079Z,11.81
2023-03-15T19:45:15.194Z,12.01
2023-03-15T19:47:42.845Z,11.86
2023-03-15T19:50:12.908Z,11.83
2023-03-15T19:52:46.118Z,11.83
2023-03-15T19:55:16.488Z,11.77
2023-03-15T19:57:44.201Z,11.70
2023-03-15T20:00:14.439Z,11.67
2023-03-15T20:02:43.036Z,11.71
2023-03-15T20:05:13.521Z,11.73
2023-03-15T20:07:42.541Z,11.71
2023-03-15T20:10:11.740Z,11.86
2023-03-15T20:12:42.664Z,11.76
2023-03-15T20:15:12.888Z,11.67
2023-03-15T20:17:41.156Z,11.62
2023-03-15T20:20:11.060Z,11.68
2023-03-15T20:22:41.232Z,11.77
2023-03-15T20:25:11.421Z,11.61
2023-03-15T20:27:39.095Z,11.54
2023-03-15T20:30:08.617Z,11.74
2023-03-15T20:32:36.431Z,11.64
2023-03-15T20:35:09.129Z,11.55
2023-03-15T20:37:40.557Z,11.72
2023-03-15T20:40:16.076Z,11.69
2023-03-15T20:42:43.940Z,11.78
2023-03-15T20:45:12.789Z,11.73
2023-03-15T20:47:41.331Z,11.63
2023-03-15T20:50:10.595Z,11.58
2023-03-15T20:52:38.372Z,11.58
2023-03-15T20:55:08.006Z,11.56
2023-03-15T20:57:36.651Z,11.41
2023-03-15T21:00:23.731Z,11.63
2023-03-15T21:02:51.499Z,11.47
2023-03-15T21:05:19.437Z,11.48
2023-03-15T21:07:46.927Z,11.46
2023-03-15T21:10:15.029Z,11.33
2023-03-15T21:12:44.126Z,11.35
2023-03-15T21:15:17.967Z,11.30
2023-03-15T21:17:48.948Z,11.27
2023-03-15T21:20:18.115Z,11.34
2023-03-15T21:22:45.676Z,11.31
2023-03-15T21:25:13.458Z,11.31
2023-03-15T21:27:41.261Z,11.28
2023-03-15T21:30:09.517Z,11.28
2023-03-15T21:32:38.392Z,11.31
2023-03-15T21:35:06.938Z,11.30
2023-03-15T21:37:34.567Z,11.26
2023-03-15T21:40:02.449Z,11.40
2023-03-15T21:42:29.872Z,11.45
2023-03-15T21:44:57.356Z,11.39
2023-03-15T21:47:24.932Z,11.51
2023-03-15T21:49:54.177Z,11.48
2023-03-15T21:52:21.917Z,11.50
2023-03-15T21:54:49.361Z,11.52
2023-03-15T21:57:16.795Z,11.44
2023-03-15T21:59:44.579Z,11.45
2023-03-15T22:02:14.350Z,11.42
2023-03-15T22:04:42.494Z,11.34
2023-03-15T22:07:11.186Z,11.31
2023-03-15T22:09:39.166Z,11.34
2023-03-15T22:12:07.254Z,11.46
2023-03-15T22:14:34.821Z,11.42
2023-03-15T22:17:04.980Z,11.36
2023-03-15T22:19:32.665Z,11.35
2023-03-15T22:22:00.689Z,11.32
2023-03-15T22:24:28.082Z,11.26
2023-03-15T22:26:56.267Z,11.26
2023-03-15T22:29:23.685Z,11.34
2023-03-15T22:31:51.742Z,11.45
2023-03-15T22:34:19.890Z,11.32
2023-03-15T22:36:47.379Z,11.19
2023-03-15T22:39:14.834Z,11.22
2023-03-15T22:41:42.334Z,11.32
2023-03-15T22:44:09.967Z,11.31
2023-03-15T22:46:37.728Z,11.27
2023-03-15T22:49:05.269Z,11.26
2023-03-15T22:51:32.732Z,11.28
2023-03-15T22:54:00.244Z,11.25
2023-03-15T22:56:27.688Z,11.27
2023-03-15T22:58:55.722Z,11.44
2023-03-15T23:01:23.547Z,11.33
2023-03-15T23:03:51.309Z,11.43
2023-03-15T23:06:19.688Z,11.41
2023-03-15T23:08:47.086Z,11.42
2023-03-15T23:11:14.555Z,11.38
2023-03-15T23:13:42.411Z,11.23
2023-03-15T23:16:10.006Z,11.28
2023-03-15T23:18:37.541Z,11.33
2023-03-15T23:21:06.378Z,11.21
2023-03-15T23:23:34.426Z,11.15
2023-03-15T23:26:02.432Z,11.15
2023-03-15T23:28:30.695Z,11.18
2023-03-15T23:31:03.314Z,11.23
2023-03-15T23:33:34.108Z,11.20
2023-03-15T23:36:02.939Z,11.14
2023-03-15T23:38:30.425Z,11.13
2023-03-15T23:40:59.178Z,11.25
2023-03-15T23:43:26.810Z,11.31
2023-03-15T23:46:05.319Z,11.34
2023-03-15T23:48:35.765Z,11.33
2023-03-15T23:51:03.285Z,11.30
2023-03-15T23:53:31.789Z,11.26
2023-03-15T23:55:59.376Z,11.29
2023-03-15T23:58:27.072Z,11.46
